createdAt,value
2019-06-27T00:01:44.944Z,15.33
2019-06-27T00:03:49.791Z,14.80
2019-06-27T00:05:54.398Z,14.80
2019-06-27T00:07:59.040Z,15.00
2019-06-27T00:10:04.693Z,15.33
2019-06-27T00:12:09.394Z,14.97
2019-06-27T00:14:14.016Z,14.37
2019-06-27T00:16:19.981Z,16.87
2019-06-27T00:18:24.612Z,16.80
2019-06-27T00:20:29.412Z,14.73
2019-06-27T00:22:34.756Z,13.93
2019-06-27T00:24:39.266Z,14.20
2019-06-27T00:26:56.663Z,14.83
2019-06-27T00:28:50.280Z,14.10
2019-06-27T00:30:54.864Z,14.00
2019-06-27T00:32:59.489Z,14.40
2019-06-27T00:35:04.513Z,16.50
2019-06-27T00:37:09.174Z,15.00
2019-06-27T00:39:13.932Z,14.20
2019-06-27T00:41:18.521Z,16.57
2019-06-27T00:43:23.189Z,14.40
2019-06-27T00:45:27.816Z,14.13
2019-06-27T00:47:33.545Z,14.53
2019-06-27T00:49:38.162Z,13.87
2019-06-27T00:51:45.276Z,13.80
2019-06-27T00:53:49.015Z,16.90
2019-06-27T00:55:53.892Z,14.73
2019-06-27T00:57:58.502Z,13.47
2019-06-27T01:00:03.356Z,13.83
2019-06-27T01:02:08.071Z,12.60
2019-06-27T01:04:14.404Z,13.40
2019-06-27T01:06:19.081Z,13.77
2019-06-27T01:08:23.677Z,13.90
2019-06-27T01:10:29.944Z,14.47
2019-06-27T01:12:34.528Z,14.33
2019-06-27T01:14:39.150Z,12.87
2019-06-27T01:16:43.813Z,13.60
2019-06-27T01:18:48.467Z,13.33
2019-06-27T01:20:53.162Z,13.37
2019-06-27T01:22:57.761Z,13.23
2019-06-27T01:25:02.412Z,14.23
2019-06-27T01:27:07.126Z,12.33
2019-06-27T01:29:11.745Z,15.50
2019-06-27T01:31:16.418Z,13.73
2019-06-27T01:33:21.076Z,13.33
2019-06-27T01:35:25.720Z,13.37
2019-06-27T01:37:30.236Z,13.30
2019-06-27T01:39:34.868Z,14.27
2019-06-27T01:41:39.479Z,12.90
2019-06-27T01:43:44.136Z,13.07
2019-06-27T01:45:56.589Z,13.30
2019-06-27T01:48:00.865Z,13.70
2019-06-27T01:50:06.026Z,13.57
2019-06-27T01:52:10.644Z,13.70
2019-06-27T01:54:15.673Z,13.57
2019-06-27T01:56:21.739Z,12.50
2019-06-27T01:58:26.362Z,12.60
2019-06-27T02:00:30.960Z,12.57
2019-06-27T02:02:35.607Z,13.40
2019-06-27T02:04:40.211Z,12.37
2019-06-27T02:06:44.887Z,14.73
2019-06-27T02:08:49.443Z,12.20
2019-06-27T02:10:54.091Z,13.43
2019-06-27T02:12:58.782Z,13.87
2019-06-27T02:15:03.422Z,13.97
2019-06-27T02:17:09.342Z,15.60
2019-06-27T02:19:14.189Z,12.77
2019-06-27T02:21:18.795Z,12.60
2019-06-27T02:23:25.311Z,15.10
2019-06-27T02:25:30.393Z,11.97
2019-06-27T02:27:35.047Z,12.90
2019-06-27T02:29:39.677Z,12.97
2019-06-27T02:31:44.578Z,13.80
2019-06-27T02:33:49.220Z,11.90
2019-06-27T02:35:53.825Z,12.77
2019-06-27T02:37:58.547Z,12.47
2019-06-27T02:40:03.274Z,12.77
2019-06-27T02:42:08.052Z,13.83
2019-06-27T02:44:12.793Z,14.23
2019-06-27T02:46:17.417Z,15.93
2019-06-27T02:48:21.915Z,11.47
2019-06-27T02:50:26.774Z,12.00
2019-06-27T02:52:31.347Z,12.63
2019-06-27T02:54:36.002Z,12.47
2019-06-27T02:56:40.968Z,11.67
2019-06-27T02:58:45.773Z,11.43
2019-06-27T03:00:50.363Z,12.27
2019-06-27T03:02:55.246Z,11.13
2019-06-27T03:05:02.135Z,11.70
2019-06-27T03:07:08.234Z,11.17
2019-06-27T03:09:13.930Z,11.27
2019-06-27T03:11:18.469Z,12.47
2019-06-27T03:13:23.022Z,11.20
2019-06-27T03:15:27.791Z,10.70
2019-06-27T03:17:32.369Z,11.53
2019-06-27T03:19:36.936Z,11.13
2019-06-27T03:21:41.452Z,11.27
2019-06-27T03:23:46.013Z,14.00
2019-06-27T03:25:52.873Z,12.67
2019-06-27T03:27:57.505Z,11.63
2019-06-27T03:30:02.155Z,11.53
2019-06-27T03:32:09.743Z,15.53
2019-06-27T03:34:14.369Z,11.33
2019-06-27T03:36:33.065Z,11.20
2019-06-27T03:38:28.102Z,11.00
2019-06-27T03:40:32.733Z,13.00
2019-06-27T03:42:37.250Z,12.47
2019-06-27T03:44:41.822Z,14.27
2019-06-27T03:46:46.369Z,10.10
2019-06-27T03:48:50.889Z,11.03
2019-06-27T03:50:56.451Z,11.13
2019-06-27T03:53:01.278Z,11.30
2019-06-27T03:55:06.140Z,13.10
2019-06-27T05:37:28.607Z,8.10
2019-06-27T05:40:31.462Z,8.93
2019-06-27T05:43:04.014Z,6.03
2019-06-27T05:52:36.676Z,5.80
2019-06-27T07:37:06.943Z,4.15
2019-06-27T07:39:25.329Z,4.37
2019-06-27T07:41:36.274Z,4.30
2019-06-27T07:43:55.666Z,5.08
2019-06-27T07:46:24.446Z,4.17
2019-06-27T07:48:36.071Z,4.62
2019-06-27T07:50:52.263Z,6.45
2019-06-27T07:53:28.803Z,4.55
2019-06-27T07:55:53.923Z,3.80
2019-06-27T07:58:10.616Z,4.37
2019-06-27T08:00:29.251Z,8.63
2019-06-27T08:02:47.050Z,3.50
2019-06-27T08:05:05.939Z,4.62
2019-06-27T08:07:25.811Z,4.70
2019-06-27T08:09:39.494Z,5.45
2019-06-27T08:12:05.617Z,4.37
2019-06-27T08:14:28.382Z,6.55
2019-06-27T08:16:43.809Z,4.30
2019-06-27T08:18:59.060Z,6.75
2019-06-27T08:21:18.072Z,4.08
2019-06-27T08:23:41.394Z,4.05
2019-06-27T08:25:49.881Z,5.10
2019-06-27T08:28:05.928Z,7.87
2019-06-27T08:30:27.228Z,6.03
2019-06-27T08:32:44.285Z,3.87
2019-06-27T08:35:02.536Z,3.87
2019-06-27T08:37:32.411Z,2.60
2019-06-27T08:39:46.947Z,4.37
2019-06-27T08:42:01.095Z,3.52
2019-06-27T08:44:18.159Z,7.28
2019-06-27T08:46:29.794Z,2.33
2019-06-27T08:48:47.022Z,3.65
2019-06-27T08:51:09.656Z,3.40
2019-06-27T08:53:25.019Z,3.92
2019-06-27T08:55:41.855Z,3.72
2019-06-27T08:57:55.711Z,2.90
2019-06-27T09:00:12.091Z,2.50
2019-06-27T09:02:32.031Z,7.40
2019-06-27T09:04:55.089Z,6.22
2019-06-27T09:07:04.031Z,5.37
2019-06-27T09:09:17.736Z,3.87
2019-06-27T09:11:45.163Z,3.25
2019-06-27T09:14:03.150Z,3.72
2019-06-27T09:16:21.793Z,5.87
2019-06-27T09:18:34.948Z,5.83
2019-06-27T09:20:49.927Z,3.20
2019-06-27T09:23:13.430Z,3.67
2019-06-27T09:25:27.005Z,3.58
2019-06-27T09:27:50.385Z,3.33
2019-06-27T09:29:57.594Z,5.75
2019-06-27T09:32:03.571Z,1.98
2019-06-27T09:34:21.554Z,5.12
2019-06-27T09:36:46.289Z,2.92
2019-06-27T09:39:01.517Z,3.62
2019-06-27T09:41:10.656Z,3.08
2019-06-27T09:43:23.421Z,5.33
2019-06-27T09:45:52.190Z,4.80
2019-06-27T09:48:05.141Z,4.78
2019-06-27T09:50:21.740Z,3.33
2019-06-27T09:52:41.037Z,4.87
2019-06-27T09:54:56.598Z,8.18
2019-06-27T09:57:15.694Z,2.45
2019-06-27T09:59:36.162Z,2.33
2019-06-27T10:01:52.247Z,4.87
2019-06-27T10:04:13.083Z,6.87
2019-06-27T10:07:00.636Z,3.62
2019-06-27T10:09:21.951Z,2.52
2019-06-27T10:14:38.151Z,4.03
2019-06-27T10:16:50.963Z,4.42
2019-06-27T10:19:05.139Z,2.60
2019-06-27T10:21:17.836Z,4.87
2019-06-27T10:23:45.519Z,4.35
2019-06-27T10:26:03.562Z,1.82
2019-06-27T10:28:28.890Z,3.98
2019-06-27T10:31:25.430Z,3.33
2019-06-27T10:33:43.725Z,4.83
2019-06-27T10:36:01.285Z,2.55
2019-06-27T10:38:14.632Z,5.15
2019-06-27T10:40:31.151Z,2.40
2019-06-27T10:42:48.832Z,2.83
2019-06-27T10:44:59.607Z,3.02
2019-06-27T10:47:12.615Z,1.77
2019-06-27T10:49:36.042Z,2.40
2019-06-27T10:51:56.124Z,5.83
2019-06-27T10:54:12.348Z,2.83
2019-06-27T10:56:29.219Z,2.85
2019-06-27T10:58:43.762Z,3.65
2019-06-27T11:01:00.806Z,2.12
2019-06-27T11:03:44.157Z,1.85
2019-06-27T11:06:08.732Z,2.60
2019-06-27T11:08:25.274Z,2.05
2019-06-27T11:10:44.612Z,4.42
2019-06-27T11:13:04.274Z,2.70
2019-06-27T11:15:42.280Z,1.67
2019-06-27T11:18:22.886Z,1.40
2019-06-27T11:23:21.997Z,3.58
2019-06-27T11:25:34.501Z,1.45
2019-06-27T11:27:49.332Z,3.77
2019-06-27T11:30:03.501Z,1.20
2019-06-27T11:32:14.934Z,4.03
2019-06-27T11:34:25.661Z,3.00
2019-06-27T11:36:57.993Z,2.08
2019-06-27T11:39:23.251Z,1.70
2019-06-27T11:41:41.262Z,2.80
2019-06-27T11:44:23.108Z,2.58
2019-06-27T11:46:34.662Z,0.90
2019-06-27T11:51:29.748Z,1.15
2019-06-27T11:53:58.312Z,2.25
2019-06-27T11:56:14.780Z,1.90
2019-06-27T11:58:29.039Z,3.67
2019-06-27T12:00:58.447Z,0.75
2019-06-27T12:03:17.112Z,1.40
2019-06-27T12:05:33.116Z,1.15
2019-06-27T12:08:04.006Z,1.57
2019-06-27T12:10:34.551Z,1.10
2019-06-27T12:12:40.870Z,2.65
2019-06-27T12:14:54.744Z,1.62
2019-06-27T12:17:10.003Z,0.88
2019-06-27T12:19:26.942Z,1.20
2019-06-27T12:22:01.382Z,2.35
2019-06-27T12:24:13.354Z,1.27
2019-06-27T12:26:37.774Z,2.75
2019-06-27T12:29:11.335Z,2.85
2019-06-27T12:34:06.947Z,2.05
2019-06-27T12:36:18.892Z,1.60
2019-06-27T12:38:36.534Z,1.77
2019-06-27T12:40:47.862Z,2.17
2019-06-27T12:43:19.478Z,4.42
2019-06-27T12:45:35.135Z,1.65
2019-06-27T12:47:49.240Z,1.32
2019-06-27T12:50:02.836Z,2.90
2019-06-27T12:52:10.053Z,2.65
2019-06-27T12:54:23.634Z,1.90
2019-06-27T12:56:38.251Z,3.45
2019-06-27T12:58:56.389Z,1.22
2019-06-27T13:01:11.691Z,2.52
2019-06-27T13:03:22.962Z,2.17
2019-06-27T13:05:48.053Z,3.92
2019-06-27T13:08:09.220Z,3.58
2019-06-27T13:10:35.518Z,3.90
2019-06-27T13:12:58.350Z,1.30
2019-06-27T13:15:09.668Z,2.55
2019-06-27T13:17:21.821Z,2.47
2019-06-27T13:19:41.472Z,2.90
2019-06-27T13:22:02.008Z,2.50
2019-06-27T13:24:28.769Z,1.52
2019-06-27T13:27:07.099Z,2.83
2019-06-27T13:29:26.803Z,3.08
2019-06-27T13:31:41.489Z,3.30
2019-06-27T13:34:08.411Z,1.75
2019-06-27T13:36:27.132Z,2.75
2019-06-27T13:41:49.022Z,2.33
2019-06-27T13:44:09.959Z,5.83
2019-06-27T13:49:11.826Z,6.05
2019-06-27T13:51:21.614Z,2.42
2019-06-27T13:53:57.448Z,3.45
2019-06-27T13:56:12.661Z,4.15
2019-06-27T13:58:30.502Z,2.27
2019-06-27T14:01:06.630Z,4.12
2019-06-27T14:03:49.704Z,3.52
2019-06-27T14:09:53.795Z,2.02
2019-06-27T14:12:04.235Z,2.52
2019-06-27T14:15:01.479Z,4.60
2019-06-27T14:17:18.018Z,4.22
2019-06-27T14:19:36.290Z,3.02
2019-06-27T14:21:53.100Z,4.60
2019-06-27T14:24:05.603Z,4.03
2019-06-27T14:26:21.522Z,3.02
2019-06-27T14:28:37.077Z,1.67
2019-06-27T14:30:47.494Z,3.02
2019-06-27T14:33:22.173Z,3.05
2019-06-27T14:35:41.446Z,3.70
2019-06-27T14:38:04.853Z,2.40
2019-06-27T14:40:20.810Z,3.75
2019-06-27T14:42:33.234Z,4.40
2019-06-27T14:45:04.371Z,2.05
2019-06-27T14:47:38.181Z,4.53
2019-06-27T14:49:51.185Z,5.35
2019-06-27T14:52:12.840Z,5.22
2019-06-27T14:54:30.319Z,3.20
2019-06-27T14:56:47.422Z,3.37
2019-06-27T14:59:15.435Z,2.83
2019-06-27T15:01:27.534Z,3.77
2019-06-27T15:03:47.918Z,2.77
2019-06-27T15:06:23.273Z,2.15
2019-06-27T15:08:39.063Z,2.35
2019-06-27T15:11:14.682Z,4.30
2019-06-27T15:13:32.074Z,4.20
2019-06-27T15:15:47.902Z,2.77
2019-06-27T15:18:04.842Z,2.37
2019-06-27T15:20:23.543Z,7.15
2019-06-27T15:22:44.364Z,2.22
2019-06-27T15:24:56.823Z,2.77
2019-06-27T15:27:06.032Z,4.83
2019-06-27T15:29:26.205Z,5.08
2019-06-27T15:34:28.047Z,4.42
2019-06-27T15:36:44.520Z,3.05
2019-06-27T15:39:01.224Z,4.15
2019-06-27T15:41:12.777Z,3.65
2019-06-27T15:43:39.106Z,3.22
2019-06-27T15:48:25.469Z,3.60
2019-06-27T15:50:55.562Z,3.55
2019-06-27T15:53:09.476Z,2.58
2019-06-27T15:55:45.562Z,2.27
2019-06-27T16:00:33.533Z,3.55
2019-06-27T16:02:47.878Z,2.08
2019-06-27T16:05:05.816Z,1.95
2019-06-27T16:07:28.084Z,2.45
2019-06-27T16:09:54.473Z,3.83
2019-06-27T16:12:11.179Z,3.17
2019-06-27T16:14:28.132Z,4.22
2019-06-27T16:16:42.388Z,2.77
2019-06-27T16:19:02.202Z,2.17
2019-06-27T16:21:19.402Z,5.55
2019-06-27T16:23:42.674Z,3.08
2019-06-27T16:25:53.220Z,2.30
2019-06-27T16:28:12.042Z,2.72
2019-06-27T16:30:28.338Z,2.85
2019-06-27T16:32:41.740Z,3.12
2019-06-27T16:35:00.680Z,3.02
2019-06-27T16:37:21.001Z,6.67
2019-06-27T16:39:28.434Z,1.90
2019-06-27T16:41:51.859Z,2.08
2019-06-27T16:44:17.542Z,3.67
2019-06-27T16:46:47.340Z,3.00
2019-06-27T16:49:06.775Z,2.30
2019-06-27T16:51:24.413Z,4.08
2019-06-27T16:53:43.135Z,5.17
2019-06-27T16:55:55.975Z,2.65
2019-06-27T16:58:10.020Z,2.75
2019-06-27T17:00:21.885Z,2.10
2019-06-27T17:02:35.922Z,2.52
2019-06-27T17:04:46.799Z,4.67
2019-06-27T17:07:05.726Z,4.03
2019-06-27T17:09:18.334Z,3.87
2019-06-27T17:11:26.623Z,3.55
2019-06-27T17:13:45.450Z,2.77
2019-06-27T17:15:56.510Z,2.40
2019-06-27T17:18:11.258Z,3.62
2019-06-27T17:20:23.393Z,3.52
2019-06-27T17:22:32.597Z,2.72
2019-06-27T17:24:44.725Z,3.12
2019-06-27T17:26:56.573Z,5.37
2019-06-27T17:29:04.367Z,3.40
2019-06-27T17:31:15.122Z,3.90
2019-06-27T17:33:26.942Z,4.28
2019-06-27T17:35:42.184Z,6.03
2019-06-27T17:37:56.842Z,5.58
2019-06-27T17:40:11.342Z,1.65
2019-06-27T17:42:41.769Z,2.95
2019-06-27T17:45:02.815Z,4.20
2019-06-27T17:47:40.600Z,3.60
2019-06-27T17:49:52.560Z,4.80
2019-06-27T17:52:04.658Z,2.52
2019-06-27T17:54:19.685Z,3.00
2019-06-27T17:56:34.197Z,1.98
2019-06-27T17:58:53.710Z,3.85
2019-06-27T18:01:13.134Z,2.55
2019-06-27T18:03:51.701Z,4.30
2019-06-27T18:06:08.527Z,1.87
2019-06-27T18:08:28.039Z,1.70
2019-06-27T18:10:43.972Z,2.10
2019-06-27T18:12:59.372Z,3.05
2019-06-27T18:15:09.928Z,3.95
2019-06-27T18:17:33.572Z,5.78
2019-06-27T18:19:37.738Z,3.92
2019-06-27T18:21:50.657Z,2.95
2019-06-27T18:24:08.078Z,1.67
2019-06-27T18:26:29.759Z,3.27
2019-06-27T18:28:55.940Z,3.27
2019-06-27T18:31:05.670Z,3.33
2019-06-27T18:33:22.247Z,3.00
2019-06-27T18:35:40.118Z,2.70
2019-06-27T18:37:55.919Z,7.28
2019-06-27T18:40:06.914Z,2.40
2019-06-27T18:42:20.441Z,2.35
2019-06-27T18:44:35.826Z,2.33
2019-06-27T18:46:49.422Z,2.87
2019-06-27T18:48:59.760Z,3.42
2019-06-27T18:51:12.096Z,5.67
2019-06-27T18:53:25.761Z,4.00
2019-06-27T18:55:35.518Z,2.55
2019-06-27T18:57:54.241Z,3.35
2019-06-27T19:00:02.822Z,2.90
2019-06-27T19:02:11.438Z,4.17
2019-06-27T19:04:20.746Z,5.90
2019-06-27T19:06:32.339Z,4.00
2019-06-27T19:08:47.724Z,2.12
2019-06-27T19:11:11.147Z,2.53
2019-06-27T19:13:22.819Z,4.42
2019-06-27T19:15:35.999Z,6.80
2019-06-27T19:17:47.689Z,3.35
2019-06-27T19:20:01.688Z,2.30
2019-06-27T19:22:32.436Z,2.00
2019-06-27T19:24:54.169Z,4.57
2019-06-27T19:27:11.979Z,2.80
2019-06-27T19:29:28.260Z,3.63
2019-06-27T19:31:40.589Z,5.27
2019-06-27T19:33:58.993Z,5.63
2019-06-27T19:36:16.817Z,6.53
2019-06-27T19:38:34.687Z,4.07
2019-06-27T19:40:48.723Z,3.43
2019-06-27T19:43:23.366Z,3.03
2019-06-27T19:45:28.573Z,3.00
2019-06-27T19:48:00.985Z,2.97
2019-06-27T19:50:18.209Z,4.20
2019-06-27T19:52:34.289Z,3.30
2019-06-27T19:54:50.095Z,3.83
2019-06-27T19:57:03.939Z,4.83
2019-06-27T19:59:25.353Z,3.47
2019-06-27T20:01:40.718Z,3.27
2019-06-27T20:04:01.264Z,4.40
2019-06-27T20:06:14.023Z,4.07
2019-06-27T20:08:28.689Z,5.13
2019-06-27T20:10:45.462Z,3.93
2019-06-27T20:15:56.818Z,3.87
2019-06-27T20:18:15.444Z,4.17
2019-06-27T20:20:28.463Z,3.30
2019-06-27T20:22:41.702Z,4.87
2019-06-27T20:25:00.993Z,5.93
2019-06-27T20:27:13.633Z,5.93
2019-06-27T20:29:30.721Z,5.30
2019-06-27T20:31:52.210Z,4.60
2019-06-27T20:34:02.018Z,5.77
2019-06-27T20:36:13.106Z,5.93
2019-06-27T20:38:35.506Z,5.30
2019-06-27T20:40:48.179Z,6.53
2019-06-27T20:43:05.867Z,4.87
2019-06-27T20:45:25.136Z,5.37
2019-06-27T20:47:44.910Z,6.27
2019-06-27T20:52:30.930Z,4.93
2019-06-27T20:54:48.358Z,5.83
2019-06-27T20:57:11.645Z,3.30
2019-06-27T20:59:29.680Z,6.13
2019-06-27T21:01:47.022Z,6.63
2019-06-27T21:04:00.414Z,7.77
2019-06-27T21:06:24.332Z,6.60
2019-06-27T21:08:50.193Z,4.97
2019-06-27T21:10:57.185Z,4.37
2019-06-27T21:13:10.545Z,3.93
2019-06-27T21:15:31.304Z,6.17
2019-06-27T21:17:46.782Z,6.70
2019-06-27T21:19:59.975Z,4.67
2019-06-27T21:22:15.828Z,3.03
2019-06-27T21:24:27.902Z,5.07
2019-06-27T21:26:42.487Z,8.13
2019-06-27T21:28:57.487Z,5.27
2019-06-27T21:31:08.909Z,8.73
2019-06-27T21:33:26.451Z,6.50
2019-06-27T21:35:38.808Z,7.07
2019-06-27T21:37:55.600Z,5.57
2019-06-27T21:40:07.131Z,7.13
2019-06-27T21:42:24.057Z,6.37
2019-06-27T21:44:46.278Z,5.13
2019-06-27T21:47:04.811Z,6.20
2019-06-27T21:49:15.650Z,4.53
2019-06-27T21:51:29.582Z,6.07
2019-06-27T21:53:45.543Z,6.67
2019-06-27T21:55:55.138Z,7.20
2019-06-27T21:58:05.841Z,5.07
2019-06-27T22:00:18.243Z,6.70
2019-06-27T22:02:34.731Z,6.00
2019-06-27T22:04:57.778Z,5.27
2019-06-27T22:07:18.445Z,5.80
2019-06-27T22:09:33.681Z,6.17
2019-06-27T22:11:43.584Z,6.93
2019-06-27T22:13:52.995Z,4.30
2019-06-27T22:16:03.018Z,7.93
2019-06-27T22:18:15.763Z,5.70
2019-06-27T22:20:30.473Z,5.17
2019-06-27T22:22:51.214Z,6.67
2019-06-27T22:24:57.186Z,9.73
2019-06-27T22:27:05.142Z,7.00
2019-06-27T22:29:20.911Z,7.20
2019-06-27T22:31:34.843Z,7.90
2019-06-27T22:33:52.768Z,6.73
2019-06-27T22:36:18.723Z,6.23
2019-06-27T22:38:40.877Z,4.27
2019-06-27T22:41:15.383Z,9.97
2019-06-27T22:43:55.393Z,5.83
2019-06-27T22:46:23.374Z,4.20
2019-06-27T22:48:35.770Z,9.60
2019-06-27T22:51:10.865Z,6.33
2019-06-27T22:53:20.905Z,6.03
2019-06-27T22:55:29.787Z,6.47
2019-06-27T22:57:41.190Z,6.20
2019-06-27T22:59:57.632Z,4.90
2019-06-27T23:02:09.975Z,5.67
2019-06-27T23:04:26.320Z,6.77
2019-06-27T23:06:38.485Z,6.23
2019-06-27T23:08:50.667Z,5.53
2019-06-27T23:11:24.095Z,7.47
2019-06-27T23:13:38.539Z,5.87
2019-06-27T23:15:49.147Z,5.87
2019-06-27T23:18:02.271Z,8.40
2019-06-27T23:20:16.372Z,8.13
2019-06-27T23:22:25.236Z,6.47
2019-06-27T23:24:43.709Z,5.97
2019-06-27T23:27:22.827Z,7.07
2019-06-27T23:29:36.887Z,5.90
2019-06-27T23:31:56.132Z,7.93
2019-06-27T23:34:14.280Z,6.03
2019-06-27T23:36:33.263Z,5.70
2019-06-27T23:38:45.565Z,8.17
2019-06-27T23:40:51.937Z,5.73
2019-06-27T23:43:00.318Z,5.03
2019-06-27T23:45:11.301Z,5.30
2019-06-27T23:47:23.925Z,5.43
2019-06-27T23:49:34.778Z,8.47
2019-06-27T23:51:41.312Z,7.17
2019-06-27T23:53:57.968Z,9.20
2019-06-27T23:56:06.862Z,5.43
2019-06-27T23:58:17.303Z,7.50
